createdAt,value
2019-02-06T00:00:07.423Z,1021.22
2019-02-06T00:01:07.357Z,1021.21
2019-02-06T00:02:07.307Z,1021.28
2019-02-06T00:03:07.300Z,1021.28
2019-02-06T00:04:07.242Z,1021.31
2019-02-06T00:05:14.302Z,1021.31
2019-02-06T00:06:07.138Z,1021.27
2019-02-06T00:07:07.078Z,1021.30
2019-02-06T00:08:07.041Z,1021.29
2019-02-06T00:09:06.976Z,1021.34
2019-02-06T00:10:06.966Z,1021.31
2019-02-06T00:11:06.913Z,1021.29
2019-02-06T00:12:06.834Z,1021.37
2019-02-06T00:13:06.838Z,1021.31
2019-02-06T00:14:06.791Z,1021.32
2019-02-06T00:15:06.699Z,1021.32
2019-02-06T00:16:06.665Z,1021.30
2019-02-06T00:17:06.612Z,1021.27
2019-02-06T00:18:06.569Z,1021.30
2019-02-06T00:19:06.531Z,1021.26
2019-02-06T00:20:06.511Z,1021.26
2019-02-06T00:21:06.414Z,1021.27
2019-02-06T00:22:06.367Z,1021.26
2019-02-06T00:23:06.344Z,1021.28
2019-02-06T00:24:06.271Z,1021.28
2019-02-06T00:25:06.239Z,1021.23
2019-02-06T00:26:06.218Z,1021.26
2019-02-06T00:27:06.134Z,1021.23
2019-02-06T00:28:06.119Z,1021.25
2019-02-06T00:29:06.065Z,1021.27
2019-02-06T00:30:06.000Z,1021.31
2019-02-06T00:31:05.971Z,1021.30
2019-02-06T00:32:05.913Z,1021.28
2019-02-06T00:33:05.879Z,1021.15
2019-02-06T00:34:05.823Z,1021.22
2019-02-06T00:35:05.768Z,1021.20
2019-02-06T00:36:05.780Z,1021.15
2019-02-06T00:37:05.668Z,1021.17
2019-02-06T00:38:05.698Z,1021.14
2019-02-06T00:39:05.590Z,1021.15
2019-02-06T00:40:05.535Z,1021.09
2019-02-06T00:41:05.502Z,1021.11
2019-02-06T00:42:05.462Z,1021.10
2019-02-06T00:43:05.394Z,1021.13
2019-02-06T00:44:05.358Z,1021.19
2019-02-06T00:45:05.311Z,1021.12
2019-02-06T00:46:05.287Z,1021.12
2019-02-06T00:47:05.253Z,1021.09
2019-02-06T00:48:05.167Z,1021.11
2019-02-06T00:49:05.105Z,1021.13
2019-02-06T00:50:05.060Z,1021.14
2019-02-06T00:51:05.040Z,1021.10
2019-02-06T00:52:04.997Z,1021.14
2019-02-06T00:53:04.957Z,1021.12
2019-02-06T00:54:04.888Z,1021.14
2019-02-06T00:55:04.837Z,1021.09
2019-02-06T00:56:04.800Z,1021.13
2019-02-06T00:57:04.763Z,1021.09
2019-02-06T00:58:04.710Z,1021.13
2019-02-06T00:59:04.659Z,1021.15
2019-02-06T01:00:04.638Z,1021.15
2019-02-06T01:01:04.553Z,1021.14
2019-02-06T01:02:04.523Z,1021.15
2019-02-06T01:03:04.481Z,1021.10
2019-02-06T01:04:04.426Z,1021.09
2019-02-06T01:05:04.380Z,1021.10
2019-02-06T01:06:04.320Z,1021.06
2019-02-06T01:07:04.282Z,1021.07
2019-02-06T01:08:04.243Z,1021.05
2019-02-06T01:09:04.199Z,1021.06
2019-02-06T01:10:04.123Z,1021.08
2019-02-06T01:11:04.088Z,1021.10
2019-02-06T01:12:04.066Z,1021.05
2019-02-06T01:13:04.012Z,1021.01
2019-02-06T01:14:03.967Z,1020.98
2019-02-06T01:15:03.924Z,1020.94
2019-02-06T01:16:03.862Z,1020.94
2019-02-06T01:17:03.798Z,1020.88
2019-02-06T01:18:03.796Z,1020.90
2019-02-06T01:19:03.769Z,1020.85
2019-02-06T01:20:03.666Z,1020.89
2019-02-06T01:21:03.647Z,1020.90
2019-02-06T01:22:03.596Z,1020.93
2019-02-06T01:23:03.534Z,1020.98
2019-02-06T01:24:03.487Z,1020.92
2019-02-06T01:25:03.459Z,1020.99
2019-02-06T01:26:03.403Z,1020.97
2019-02-06T01:27:03.369Z,1020.97
2019-02-06T01:28:03.321Z,1020.95
2019-02-06T01:29:03.252Z,1020.95
2019-02-06T01:30:03.228Z,1020.93
2019-02-06T01:31:03.153Z,1020.95
2019-02-06T01:32:03.130Z,1020.91
2019-02-06T01:33:03.071Z,1020.91
2019-02-06T01:34:03.057Z,1020.92
2019-02-06T01:35:03.032Z,1020.98
2019-02-06T01:36:02.951Z,1020.91
2019-02-06T01:37:02.903Z,1020.97
2019-02-06T01:38:02.846Z,1020.96
2019-02-06T01:39:02.786Z,1020.98
2019-02-06T01:40:02.779Z,1020.98
2019-02-06T01:41:02.683Z,1020.93
2019-02-06T01:42:02.657Z,1020.96
2019-02-06T01:43:02.594Z,1020.94
2019-02-06T01:44:02.549Z,1020.92
2019-02-06T01:45:02.513Z,1020.91
2019-02-06T01:46:02.500Z,1020.88
2019-02-06T01:47:02.438Z,1020.93
2019-02-06T01:48:02.356Z,1020.91
2019-02-06T01:49:02.315Z,1020.89
2019-02-06T01:50:02.269Z,1020.90
2019-02-06T01:51:02.264Z,1020.94
2019-02-06T01:52:02.195Z,1020.92
2019-02-06T01:53:02.130Z,1020.98
2019-02-06T01:54:02.095Z,1020.90
2019-02-06T01:55:02.034Z,1020.87
2019-02-06T01:56:02.002Z,1020.85
2019-02-06T01:57:01.971Z,1020.85
2019-02-06T01:58:01.910Z,1020.86
2019-02-06T01:59:01.854Z,1020.90
2019-02-06T02:00:01.800Z,1020.85
2019-02-06T02:01:01.751Z,1020.87
2019-02-06T02:02:01.708Z,1020.86
2019-02-06T02:03:01.697Z,1020.82
2019-02-06T02:04:01.634Z,1020.84
2019-02-06T02:05:01.589Z,1020.82
2019-02-06T02:06:02.793Z,1020.81
2019-02-06T02:07:01.486Z,1020.78
2019-02-06T02:08:01.432Z,1020.76
2019-02-06T02:09:01.392Z,1020.82
2019-02-06T02:10:01.385Z,1020.83
2019-02-06T02:11:01.294Z,1020.79
2019-02-06T02:12:01.287Z,1020.80
2019-02-06T02:13:01.188Z,1020.70
2019-02-06T02:14:01.154Z,1020.72
2019-02-06T02:15:01.099Z,1020.72
2019-02-06T02:16:01.047Z,1020.71
2019-02-06T02:17:01.064Z,1020.61
2019-02-06T02:18:00.968Z,1020.64
2019-02-06T02:19:00.932Z,1020.57
2019-02-06T02:20:00.862Z,1020.57
2019-02-06T02:21:00.840Z,1020.60
2019-02-06T02:22:00.786Z,1020.60
2019-02-06T02:23:00.764Z,1020.49
2019-02-06T02:24:00.688Z,1020.57
2019-02-06T02:25:00.622Z,1020.54
2019-02-06T02:26:00.582Z,1020.50
2019-02-06T02:27:00.583Z,1020.46
2019-02-06T02:28:00.602Z,1020.47
2019-02-06T02:29:00.439Z,1020.41
2019-02-06T02:30:00.471Z,1020.43
2019-02-06T02:31:00.373Z,1020.39
2019-02-06T02:32:00.326Z,1020.35
2019-02-06T02:33:00.293Z,1020.31
2019-02-06T02:34:00.214Z,1020.30
2019-02-06T02:35:00.234Z,1020.35
2019-02-06T02:36:00.132Z,1020.27
2019-02-06T02:37:00.116Z,1020.28
2019-02-06T02:38:00.051Z,1020.28
2019-02-06T02:39:00.007Z,1020.22
2019-02-06T02:39:59.959Z,1020.19
2019-02-06T02:40:59.914Z,1020.14
2019-02-06T02:41:59.851Z,1020.14
2019-02-06T02:42:59.808Z,1020.15
2019-02-06T02:43:59.804Z,1020.10
2019-02-06T02:44:59.703Z,1020.11
2019-02-06T02:45:59.657Z,1020.11
2019-02-06T02:46:59.633Z,1020.10
2019-02-06T02:47:59.557Z,1020.07
2019-02-06T02:48:59.529Z,1020.14
2019-02-06T02:49:59.504Z,1020.11
2019-02-06T02:50:59.438Z,1020.08
2019-02-06T02:51:59.385Z,1020.07
2019-02-06T02:52:59.334Z,1020.05
2019-02-06T02:53:59.294Z,1020.03
2019-02-06T02:54:59.269Z,1020.04
2019-02-06T02:55:59.177Z,1020.05
2019-02-06T02:56:59.137Z,1020.08
2019-02-06T02:57:59.095Z,1020.04
2019-02-06T02:58:59.067Z,1019.97
2019-02-06T02:59:59.028Z,1020.02
2019-02-06T03:00:58.958Z,1019.99
2019-02-06T03:01:58.929Z,1020.00
2019-02-06T03:02:58.864Z,1019.97
2019-02-06T03:03:58.807Z,1019.94
2019-02-06T03:04:58.796Z,1019.89
2019-02-06T03:05:58.726Z,1019.89
2019-02-06T03:06:58.676Z,1019.93
2019-02-06T03:07:58.625Z,1019.90
2019-02-06T03:08:58.604Z,1019.94
2019-02-06T03:09:58.569Z,1019.88
2019-02-06T03:10:58.496Z,1019.85
2019-02-06T03:11:58.447Z,1019.87
2019-02-06T03:12:58.411Z,1019.84
2019-02-06T03:13:58.335Z,1019.81
2019-02-06T03:14:58.335Z,1019.82
2019-02-06T03:15:58.282Z,1019.79
2019-02-06T03:16:58.223Z,1019.78
2019-02-06T03:17:58.166Z,1019.73
2019-02-06T03:18:58.141Z,1019.71
2019-02-06T03:19:58.111Z,1019.73
2019-02-06T03:20:58.021Z,1019.71
2019-02-06T03:21:57.970Z,1019.69
2019-02-06T03:22:57.978Z,1019.69
2019-02-06T03:23:57.899Z,1019.68
2019-02-06T03:24:57.834Z,1019.65
2019-02-06T03:25:57.799Z,1019.65
2019-02-06T03:26:57.744Z,1019.66
2019-02-06T03:27:57.685Z,1019.59
2019-02-06T03:28:57.682Z,1019.59
2019-02-06T03:29:57.600Z,1019.55
2019-02-06T03:30:57.583Z,1019.58
2019-02-06T03:31:57.545Z,1019.57
2019-02-06T03:32:57.513Z,1019.60
2019-02-06T03:33:57.422Z,1019.57
2019-02-06T03:34:57.373Z,1019.58
2019-02-06T03:35:57.315Z,1019.53
2019-02-06T03:36:57.282Z,1019.64
2019-02-06T03:37:57.229Z,1019.61
2019-02-06T03:38:57.225Z,1019.68
2019-02-06T03:39:57.161Z,1019.64
2019-02-06T03:40:57.138Z,1019.71
2019-02-06T03:41:57.044Z,1019.64
2019-02-06T03:42:56.990Z,1019.60
2019-02-06T03:43:56.981Z,1019.61
2019-02-06T03:44:56.921Z,1019.59
2019-02-06T03:45:56.868Z,1019.65
2019-02-06T03:46:56.802Z,1019.65
2019-02-06T03:47:56.775Z,1019.67
2019-02-06T03:48:56.723Z,1019.62
2019-02-06T03:49:56.666Z,1019.59
2019-02-06T03:50:56.626Z,1019.58
2019-02-06T03:51:56.606Z,1019.62
2019-02-06T03:52:56.568Z,1019.56
2019-02-06T03:53:56.509Z,1019.56
2019-02-06T03:54:56.474Z,1019.56
2019-02-06T03:55:56.396Z,1019.57
2019-02-06T03:56:56.349Z,1019.54
2019-02-06T03:57:56.290Z,1019.57
2019-02-06T03:58:56.285Z,1019.49
2019-02-06T03:59:56.191Z,1019.58
2019-02-06T04:00:56.167Z,1019.53
2019-02-06T04:01:56.110Z,1019.59
2019-02-06T04:02:56.110Z,1019.56
2019-02-06T04:03:56.014Z,1019.55
2019-02-06T04:04:55.985Z,1019.48
2019-02-06T04:05:55.943Z,1019.52
2019-02-06T04:07:00.888Z,1019.51
2019-02-06T04:07:55.843Z,1019.49
2019-02-06T04:08:55.776Z,1019.47
2019-02-06T04:09:55.758Z,1019.43
2019-02-06T04:10:55.678Z,1019.45
2019-02-06T04:11:55.632Z,1019.39
2019-02-06T04:12:55.637Z,1019.36
2019-02-06T04:13:55.583Z,1019.37
2019-02-06T04:14:55.503Z,1019.35
2019-02-06T04:15:55.455Z,1019.34
2019-02-06T04:16:55.427Z,1019.35
2019-02-06T04:17:55.390Z,1019.33
2019-02-06T04:18:55.323Z,1019.30
2019-02-06T04:19:55.266Z,1019.27
2019-02-06T04:20:55.234Z,1019.29
2019-02-06T04:21:55.174Z,1019.30
2019-02-06T04:22:55.158Z,1019.29
2019-02-06T04:23:55.090Z,1019.34
2019-02-06T04:24:55.052Z,1019.36
2019-02-06T04:25:55.031Z,1019.29
2019-02-06T04:26:54.942Z,1019.25
2019-02-06T04:27:54.891Z,1019.30
2019-02-06T04:28:54.862Z,1019.31
2019-02-06T04:29:54.795Z,1019.32
2019-02-06T04:30:54.777Z,1019.32
2019-02-06T04:31:54.712Z,1019.24
2019-02-06T04:32:54.660Z,1019.23
2019-02-06T04:33:54.607Z,1019.26
2019-02-06T04:34:54.598Z,1019.18
2019-02-06T04:35:54.522Z,1019.22
2019-02-06T04:37:06.356Z,1019.22
2019-02-06T04:37:54.445Z,1019.18
2019-02-06T04:38:54.416Z,1019.16
2019-02-06T04:39:54.339Z,1019.16
2019-02-06T04:40:54.286Z,1019.18
2019-02-06T04:41:54.246Z,1019.15
2019-02-06T04:42:54.237Z,1019.10
2019-02-06T04:43:54.162Z,1019.02
2019-02-06T04:44:54.100Z,1019.06
2019-02-06T04:45:54.051Z,1019.03
2019-02-06T04:46:54.030Z,1019.01
2019-02-06T04:47:54.008Z,1018.96
2019-02-06T04:48:53.923Z,1019.02
2019-02-06T04:49:53.883Z,1018.99
2019-02-06T04:50:53.825Z,1019.12
2019-02-06T04:51:53.765Z,1019.13
2019-02-06T04:52:53.724Z,1019.04
2019-02-06T04:53:53.722Z,1019.04
2019-02-06T04:54:53.644Z,1019.04
2019-02-06T04:55:53.611Z,1019.06
2019-02-06T04:56:53.553Z,1019.00
2019-02-06T04:57:53.525Z,1019.02
2019-02-06T04:58:53.468Z,1019.07
2019-02-06T04:59:53.445Z,1019.01
2019-02-06T05:00:53.405Z,1019.02
2019-02-06T05:01:53.348Z,1018.99
2019-02-06T05:02:53.275Z,1019.02
2019-02-06T05:03:53.209Z,1019.00
2019-02-06T05:04:53.176Z,1019.00
2019-02-06T05:05:53.106Z,1018.97
2019-02-06T05:06:53.100Z,1018.99
2019-02-06T05:07:53.058Z,1018.96
2019-02-06T05:08:53.004Z,1018.96
2019-02-06T05:09:52.939Z,1018.98
2019-02-06T05:10:52.898Z,1018.96
2019-02-06T05:11:52.842Z,1019.02
2019-02-06T05:12:52.825Z,1018.99
2019-02-06T05:13:52.741Z,1018.98
2019-02-06T05:14:52.717Z,1018.93
2019-02-06T05:15:52.666Z,1018.91
2019-02-06T05:16:52.629Z,1018.91
2019-02-06T05:17:55.833Z,1018.90
2019-02-06T05:18:52.523Z,1018.92
2019-02-06T05:19:52.494Z,1018.86
2019-02-06T05:20:52.426Z,1018.88
2019-02-06T05:21:52.392Z,1018.85
2019-02-06T05:22:52.367Z,1018.88
2019-02-06T05:23:52.288Z,1018.87
2019-02-06T05:24:52.234Z,1018.84
2019-02-06T05:25:52.179Z,1018.75
2019-02-06T05:26:52.136Z,1018.76
2019-02-06T05:27:52.124Z,1018.76
2019-02-06T05:28:52.071Z,1018.71
2019-02-06T05:29:52.014Z,1018.72
2019-02-06T05:30:51.953Z,1018.66
2019-02-06T05:31:51.920Z,1018.67
2019-02-06T05:32:51.864Z,1018.64
2019-02-06T05:33:51.838Z,1018.65
2019-02-06T05:34:51.794Z,1018.60
2019-02-06T05:35:51.715Z,1018.58
2019-02-06T05:36:51.671Z,1018.56
2019-02-06T05:37:51.657Z,1018.63
2019-02-06T05:38:51.613Z,1018.60
2019-02-06T05:39:51.532Z,1018.69
2019-02-06T05:40:51.500Z,1018.61
2019-02-06T05:41:51.437Z,1018.59
2019-02-06T05:42:52.729Z,1018.62
2019-02-06T05:43:51.364Z,1018.65
2019-02-06T05:44:51.297Z,1018.59
2019-02-06T05:45:51.242Z,1018.61
2019-02-06T05:46:51.222Z,1018.61
2019-02-06T05:47:51.161Z,1018.58
2019-02-06T05:48:51.113Z,1018.57
2019-02-06T05:49:51.056Z,1018.55
2019-02-06T05:50:51.017Z,1018.57
2019-02-06T05:51:51.000Z,1018.58
2019-02-06T05:52:51.148Z,1018.54
2019-02-06T05:53:50.882Z,1018.48
2019-02-06T05:54:50.867Z,1018.49
2019-02-06T05:55:50.778Z,1018.55
2019-02-06T05:56:50.725Z,1018.52
2019-02-06T05:57:50.691Z,1018.55
2019-02-06T05:58:50.641Z,1018.57
2019-02-06T05:59:50.597Z,1018.56
2019-02-06T06:00:50.595Z,1018.53
2019-02-06T06:01:50.502Z,1018.50
2019-02-06T06:02:50.482Z,1018.51
2019-02-06T06:03:50.408Z,1018.51
2019-02-06T06:04:50.369Z,1018.54
2019-02-06T06:05:50.354Z,1018.55
2019-02-06T06:06:50.287Z,1018.58
2019-02-06T06:07:50.224Z,1018.62
2019-02-06T06:08:50.173Z,1018.51
2019-02-06T06:09:50.125Z,1018.58
2019-02-06T06:10:50.100Z,1018.57
2019-02-06T06:11:50.059Z,1018.58
2019-02-06T06:12:50.001Z,1018.64
2019-02-06T06:13:49.953Z,1018.61
2019-02-06T06:14:49.894Z,1018.61
2019-02-06T06:15:49.851Z,1018.58
2019-02-06T06:16:49.825Z,1018.54
2019-02-06T06:17:49.762Z,1018.54
2019-02-06T06:18:49.702Z,1018.50
2019-02-06T06:19:49.678Z,1018.53
2019-02-06T06:20:49.617Z,1018.50
2019-02-06T06:21:49.585Z,1018.46
2019-02-06T06:22:49.547Z,1018.45
2019-02-06T06:23:49.497Z,1018.38
2019-02-06T06:24:49.440Z,1018.39
2019-02-06T06:25:49.401Z,1018.35
2019-02-06T06:26:49.377Z,1018.37
2019-02-06T06:27:49.296Z,1018.36
2019-02-06T06:28:49.261Z,1018.38
2019-02-06T06:29:49.191Z,1018.35
2019-02-06T06:30:49.155Z,1018.27
2019-02-06T06:31:49.127Z,1018.35
2019-02-06T06:32:49.069Z,1018.35
2019-02-06T06:33:49.012Z,1018.38
2019-02-06T06:34:48.966Z,1018.36
2019-02-06T06:35:48.912Z,1018.37
2019-02-06T06:36:48.867Z,1018.32
2019-02-06T06:37:57.634Z,1018.42
2019-02-06T06:38:48.790Z,1018.27
2019-02-06T06:39:48.721Z,1018.31
2019-02-06T06:40:48.702Z,1018.28
2019-02-06T06:41:48.635Z,1018.35
2019-02-06T06:42:48.621Z,1018.28
2019-02-06T06:43:48.551Z,1018.22
2019-02-06T06:44:48.488Z,1018.24
2019-02-06T06:45:48.456Z,1018.24
2019-02-06T06:46:48.419Z,1018.22
2019-02-06T06:47:48.382Z,1018.22
2019-02-06T06:48:48.296Z,1018.35
2019-02-06T06:49:48.267Z,1018.23
2019-02-06T06:50:48.212Z,1018.22
2019-02-06T06:51:48.166Z,1018.21
2019-02-06T06:52:48.179Z,1018.23
2019-02-06T06:53:48.077Z,1018.17
2019-02-06T06:54:48.021Z,1018.17
2019-02-06T06:55:47.995Z,1018.13
2019-02-06T06:56:47.937Z,1018.13
2019-02-06T06:57:47.881Z,1018.14
2019-02-06T06:58:47.863Z,1018.17
2019-02-06T06:59:47.793Z,1018.13
2019-02-06T07:00:47.740Z,1018.16
2019-02-06T07:01:47.691Z,1018.17
2019-02-06T07:02:47.687Z,1018.14
2019-02-06T07:03:47.624Z,1018.15
2019-02-06T07:04:47.576Z,1018.18
2019-02-06T07:05:47.546Z,1018.23
2019-02-06T07:06:47.474Z,1018.09
2019-02-06T07:07:47.416Z,1018.16
2019-02-06T07:08:47.403Z,1018.12
2019-02-06T07:09:47.333Z,1018.17
2019-02-06T07:10:47.281Z,1018.14
2019-02-06T07:11:47.222Z,1018.14
2019-02-06T07:12:47.214Z,1018.15
2019-02-06T07:13:47.146Z,1018.16
2019-02-06T07:14:47.092Z,1018.16
2019-02-06T07:15:47.081Z,1018.07
2019-02-06T07:16:47.022Z,1018.03
2019-02-06T07:17:47.010Z,1018.06
2019-02-06T07:18:46.955Z,1018.08
2019-02-06T07:19:46.866Z,1018.06
2019-02-06T07:20:46.821Z,1018.04
2019-02-06T07:21:46.779Z,1018.11
2019-02-06T07:22:46.716Z,1018.03
2019-02-06T07:23:46.699Z,1018.08
2019-02-06T07:24:46.634Z,1018.12
2019-02-06T07:25:46.586Z,1018.07
2019-02-06T07:26:46.533Z,1018.06
2019-02-06T07:27:46.500Z,1018.11
2019-02-06T07:28:46.475Z,1018.10
2019-02-06T07:29:46.399Z,1018.14
2019-02-06T07:30:46.358Z,1018.09
2019-02-06T07:31:46.298Z,1018.17
2019-02-06T07:32:46.254Z,1018.24
2019-02-06T07:33:46.232Z,1018.25
2019-02-06T07:34:46.259Z,1018.23
2019-02-06T07:35:46.124Z,1018.25
2019-02-06T07:36:46.080Z,1018.28
2019-02-06T07:37:46.032Z,1018.25
2019-02-06T07:38:46.025Z,1018.28
2019-02-06T07:39:45.965Z,1018.26
2019-02-06T07:40:45.893Z,1018.26
2019-02-06T07:41:45.857Z,1018.27
2019-02-06T07:42:45.808Z,1018.25
2019-02-06T07:43:45.748Z,1018.24
2019-02-06T07:44:45.738Z,1018.26
2019-02-06T07:45:45.661Z,1018.26
2019-02-06T07:46:45.600Z,1018.26
2019-02-06T07:47:45.603Z,1018.27
2019-02-06T07:48:45.666Z,1018.18
2019-02-06T07:49:45.508Z,1018.24
2019-02-06T07:50:45.427Z,1018.28
2019-02-06T07:51:45.387Z,1018.18
2019-02-06T07:52:45.380Z,1018.21
2019-02-06T07:53:45.375Z,1018.23
2019-02-06T07:54:45.255Z,1018.27
2019-02-06T07:55:45.241Z,1018.21
2019-02-06T07:56:45.223Z,1018.22
2019-02-06T07:57:45.130Z,1018.26
2019-02-06T07:58:45.057Z,1018.21
2019-02-06T07:59:45.061Z,1018.25
2019-02-06T08:00:45.077Z,1018.24
2019-02-06T08:01:44.941Z,1018.21
2019-02-06T08:02:44.881Z,1018.22
2019-02-06T08:03:44.896Z,1018.30
2019-02-06T08:04:44.825Z,1018.33
2019-02-06T08:05:44.759Z,1018.29
2019-02-06T08:06:44.728Z,1018.28
2019-02-06T08:07:44.670Z,1018.31
2019-02-06T08:08:44.629Z,1018.20
2019-02-06T08:09:44.567Z,1018.19
2019-02-06T08:10:44.556Z,1018.23
2019-02-06T08:11:44.476Z,1018.26
2019-02-06T08:12:44.426Z,1018.31
2019-02-06T08:13:44.395Z,1018.25
2019-02-06T08:14:44.337Z,1018.24
2019-02-06T08:15:44.300Z,1018.29
2019-02-06T08:16:44.271Z,1018.24
2019-02-06T08:17:44.190Z,1018.36
2019-02-06T08:18:44.166Z,1018.28
2019-02-06T08:19:44.130Z,1018.28
2019-02-06T08:20:44.098Z,1018.33
2019-02-06T08:21:44.059Z,1018.28
2019-02-06T08:22:44.120Z,1018.27
2019-02-06T08:23:43.918Z,1018.23
2019-02-06T08:24:43.882Z,1018.33
2019-02-06T08:25:43.828Z,1018.25
2019-02-06T08:26:43.832Z,1018.30
2019-02-06T08:27:43.744Z,1018.21
2019-02-06T08:28:43.711Z,1018.22
2019-02-06T08:29:43.668Z,1018.27
2019-02-06T08:30:43.616Z,1018.29
2019-02-06T08:31:43.593Z,1018.35
2019-02-06T08:32:43.593Z,1018.27
2019-02-06T08:33:43.492Z,1018.28
2019-02-06T08:34:43.427Z,1018.33
2019-02-06T08:35:43.416Z,1018.33
2019-02-06T08:36:43.387Z,1018.34
2019-02-06T08:37:43.280Z,1018.29
2019-02-06T08:38:47.653Z,1018.35
2019-02-06T08:39:43.204Z,1018.24
2019-02-06T08:40:43.174Z,1018.35
2019-02-06T08:41:43.132Z,1018.33
2019-02-06T08:42:43.213Z,1018.37
2019-02-06T08:43:43.028Z,1018.40
2019-02-06T08:44:42.967Z,1018.37
2019-02-06T08:45:42.932Z,1018.35
2019-02-06T08:46:42.887Z,1018.42
2019-02-06T08:47:42.867Z,1018.43
2019-02-06T08:48:42.814Z,1018.46
2019-02-06T08:49:42.744Z,1018.49
2019-02-06T08:50:42.774Z,1018.45
2019-02-06T08:51:42.683Z,1018.48
2019-02-06T08:52:42.635Z,1018.46
2019-02-06T08:53:42.559Z,1018.44
2019-02-06T08:54:42.576Z,1018.42
2019-02-06T08:55:42.503Z,1018.43
2019-02-06T08:56:42.438Z,1018.52
2019-02-06T08:57:42.382Z,1018.39
2019-02-06T08:58:42.348Z,1018.43
2019-02-06T08:59:42.301Z,1018.43
2019-02-06T09:00:42.255Z,1018.46
2019-02-06T09:01:42.237Z,1018.38
2019-02-06T09:02:42.142Z,1018.39
2019-02-06T09:03:42.118Z,1018.42
2019-02-06T09:04:42.073Z,1018.40
2019-02-06T09:05:42.038Z,1018.44
2019-02-06T09:06:42.004Z,1018.47
2019-02-06T09:07:41.922Z,1018.50
2019-02-06T09:08:41.892Z,1018.48
2019-02-06T09:09:43.562Z,1018.50
2019-02-06T09:10:41.814Z,1018.51
2019-02-06T09:11:41.829Z,1018.50
2019-02-06T09:12:41.702Z,1018.45
2019-02-06T09:13:41.670Z,1018.47
2019-02-06T09:14:41.620Z,1018.45
2019-02-06T09:15:41.607Z,1018.46
2019-02-06T09:16:41.562Z,1018.55
2019-02-06T09:17:41.502Z,1018.62
2019-02-06T09:18:41.441Z,1018.53
2019-02-06T09:19:41.396Z,1018.54
2019-02-06T09:20:41.383Z,1018.55
2019-02-06T09:21:41.329Z,1018.53
2019-02-06T09:22:41.252Z,1018.53
2019-02-06T09:23:41.277Z,1018.61
2019-02-06T09:24:41.159Z,1018.64
2019-02-06T09:25:41.137Z,1018.64
2019-02-06T09:26:41.139Z,1018.67
2019-02-06T09:27:41.031Z,1018.64
2019-02-06T09:28:40.991Z,1018.68
2019-02-06T09:29:40.949Z,1018.70
2019-02-06T09:30:40.926Z,1018.69
2019-02-06T09:31:40.893Z,1018.65
2019-02-06T09:32:40.816Z,1018.67
2019-02-06T09:33:40.754Z,1018.67
2019-02-06T09:34:40.717Z,1018.71
2019-02-06T09:35:40.692Z,1018.66
2019-02-06T09:36:40.673Z,1018.68
2019-02-06T09:37:40.627Z,1018.72
2019-02-06T09:38:40.542Z,1018.78
2019-02-06T09:39:40.502Z,1018.81
2019-02-06T09:40:40.463Z,1018.68
2019-02-06T09:41:40.430Z,1018.70
2019-02-06T09:42:40.374Z,1018.69
2019-02-06T09:43:40.359Z,1018.72
2019-02-06T09:44:40.293Z,1018.69
2019-02-06T09:45:40.235Z,1018.77
2019-02-06T09:46:40.239Z,1018.70
2019-02-06T09:47:40.141Z,1018.74
2019-02-06T09:48:40.103Z,1018.74
2019-02-06T09:49:41.714Z,1018.75
2019-02-06T09:50:40.036Z,1018.75
2019-02-06T09:51:39.972Z,1018.77
2019-02-06T09:52:39.966Z,1018.73
2019-02-06T09:53:39.927Z,1018.77
2019-02-06T09:54:39.878Z,1018.77
2019-02-06T09:55:39.827Z,1018.79
2019-02-06T09:56:39.823Z,1018.79
2019-02-06T09:57:39.762Z,1018.80
2019-02-06T09:58:39.695Z,1018.83
2019-02-06T09:59:39.625Z,1018.76
2019-02-06T10:00:39.617Z,1018.74
2019-02-06T10:01:39.586Z,1018.76
2019-02-06T10:02:39.529Z,1018.76
2019-02-06T10:03:39.501Z,1018.74
2019-02-06T10:04:39.450Z,1018.73
2019-02-06T10:05:39.376Z,1018.71
2019-02-06T10:06:39.343Z,1018.73
2019-02-06T10:07:39.299Z,1018.73
2019-02-06T10:08:39.272Z,1018.70
2019-02-06T10:09:39.255Z,1018.69
2019-02-06T10:10:39.187Z,1018.70
2019-02-06T10:11:39.126Z,1018.70
2019-02-06T10:12:39.084Z,1018.69
2019-02-06T10:13:39.053Z,1018.72
2019-02-06T10:14:38.994Z,1018.74
2019-02-06T10:15:38.966Z,1018.71
2019-02-06T10:16:38.938Z,1018.72
2019-02-06T10:17:38.894Z,1018.69
2019-02-06T10:18:38.873Z,1018.68
2019-02-06T10:19:38.782Z,1018.67
2019-02-06T10:20:38.760Z,1018.68
2019-02-06T10:21:38.710Z,1018.67
2019-02-06T10:22:38.679Z,1018.64
2019-02-06T10:23:38.635Z,1018.69
2019-02-06T10:24:38.588Z,1018.64
2019-02-06T10:25:38.542Z,1018.64
2019-02-06T10:26:38.476Z,1018.67
2019-02-06T10:27:38.441Z,1018.67
2019-02-06T10:28:38.426Z,1018.64
2019-02-06T10:29:38.405Z,1018.68
2019-02-06T10:30:38.313Z,1018.65
2019-02-06T10:31:38.313Z,1018.67
2019-02-06T10:32:38.232Z,1018.66
2019-02-06T10:33:38.221Z,1018.62
2019-02-06T10:34:38.136Z,1018.66
2019-02-06T10:35:38.123Z,1018.67
2019-02-06T10:36:38.103Z,1018.66
2019-02-06T10:37:38.032Z,1018.67
2019-02-06T10:38:38.097Z,1018.59
2019-02-06T10:39:37.967Z,1018.56
2019-02-06T10:40:37.887Z,1018.57
2019-02-06T10:41:37.862Z,1018.60
2019-02-06T10:42:37.838Z,1018.55
2019-02-06T10:43:37.768Z,1018.56
2019-02-06T10:44:37.745Z,1018.52
2019-02-06T10:45:37.680Z,1018.48
2019-02-06T10:46:37.628Z,1018.49
2019-02-06T10:47:37.592Z,1018.54
2019-02-06T10:48:37.644Z,1018.40
2019-02-06T10:49:37.537Z,1018.44
2019-02-06T10:50:37.462Z,1018.47
2019-02-06T10:51:37.407Z,1018.42
2019-02-06T10:52:37.376Z,1018.46
2019-02-06T10:53:37.339Z,1018.44
2019-02-06T10:54:37.291Z,1018.47
2019-02-06T10:55:37.270Z,1018.39
2019-02-06T10:56:37.207Z,1018.36
2019-02-06T10:57:37.166Z,1018.35
2019-02-06T10:58:37.118Z,1018.33
2019-02-06T10:59:37.091Z,1018.26
2019-02-06T11:00:37.054Z,1018.40
2019-02-06T11:01:37.003Z,1018.25
2019-02-06T11:02:36.945Z,1018.26
2019-02-06T11:03:36.924Z,1018.27
2019-02-06T11:04:36.858Z,1018.26
2019-02-06T11:05:36.816Z,1018.24
2019-02-06T11:06:36.828Z,1018.28
2019-02-06T11:07:36.770Z,1018.22
2019-02-06T11:08:36.693Z,1018.18
2019-02-06T11:09:45.915Z,1018.14
2019-02-06T11:10:36.602Z,1018.13
2019-02-06T11:11:36.571Z,1018.08
2019-02-06T11:12:36.519Z,1018.11
2019-02-06T11:13:36.538Z,1018.08
2019-02-06T11:14:36.449Z,1018.09
2019-02-06T11:15:36.391Z,1018.11
2019-02-06T11:16:36.359Z,1018.07
2019-02-06T11:17:36.338Z,1018.10
2019-02-06T11:18:36.287Z,1018.05
2019-02-06T11:19:36.260Z,1018.08
2019-02-06T11:20:36.222Z,1018.05
2019-02-06T11:21:36.133Z,1018.00
2019-02-06T11:22:36.087Z,1017.99
2019-02-06T11:23:36.059Z,1018.00
2019-02-06T11:24:36.003Z,1017.94
2019-02-06T11:25:35.979Z,1017.95
2019-02-06T11:26:35.980Z,1017.96
2019-02-06T11:27:35.912Z,1017.93
2019-02-06T11:28:35.854Z,1017.90
2019-02-06T11:29:35.794Z,1017.86
2019-02-06T11:30:35.761Z,1018.00
2019-02-06T11:31:35.703Z,1017.93
2019-02-06T11:32:35.763Z,1017.90
2019-02-06T11:33:35.632Z,1017.89
2019-02-06T11:34:35.608Z,1017.94
2019-02-06T11:35:35.555Z,1017.90
2019-02-06T11:36:35.524Z,1017.84
2019-02-06T11:37:35.457Z,1017.81
2019-02-06T11:38:35.485Z,1017.80
2019-02-06T11:39:35.427Z,1017.78
2019-02-06T11:40:44.748Z,1017.75
2019-02-06T11:41:35.267Z,1017.82
2019-02-06T11:42:35.226Z,1017.76
2019-02-06T11:43:35.207Z,1017.75
2019-02-06T11:44:35.139Z,1017.76
2019-02-06T11:45:35.101Z,1017.72
2019-02-06T11:46:35.066Z,1017.76
2019-02-06T11:47:35.040Z,1017.73
2019-02-06T11:48:35.002Z,1017.77
2019-02-06T11:49:34.928Z,1017.72
2019-02-06T11:50:34.886Z,1017.69
2019-02-06T11:51:34.843Z,1017.71
2019-02-06T11:52:34.798Z,1017.65
2019-02-06T11:53:34.790Z,1017.62
2019-02-06T11:54:34.722Z,1017.64
2019-02-06T11:55:34.675Z,1017.61
2019-02-06T11:56:34.626Z,1017.62
2019-02-06T11:57:34.593Z,1017.55
2019-02-06T11:58:34.550Z,1017.54
2019-02-06T11:59:34.532Z,1017.55
2019-02-06T12:00:34.492Z,1017.54
2019-02-06T12:01:34.442Z,1017.57
2019-02-06T12:02:37.454Z,1017.53
2019-02-06T12:03:34.332Z,1017.49
2019-02-06T12:04:34.316Z,1017.48